Carlisle, Kentucky
Current Conditions -  °F | °C
As of 7:15 PM on Sunday 25 Jan 2015 (Local Time) from KIOB Reporting Station
Drizzle Drizzle  
Wind Chill: 37°   Ceiling: 4000
Heat Index: 43°   Visibility: 10mi
Dew Point: 37°   Wind: 9mph
Humidity: 81%   Direction: 220°SW
Pressure: 29.68"   Gusts: NA
Location:  38.31°N, 84.03°W
Report Text: KIOB 260015Z AUTO 22008KT 10SM DZ OVC040 06/03 A2968 RMK AO2
Loading
Personal Weather Stations






























Interactive Weather Map New forecast layout! Learn more

10-Day Weather Forecast

Advertisements
Track Severe Weather on mobile